Terminal Aerodrome Forecast
Issued by NWS Sioux Falls, SD

Home | Current Version | Previous Version | Text Only | Print | Product List | Glossary Off
Versions: 1 2 3 4 5 6 7 8 9 10 11 12 13 14

000
FTUS43 KFSD 191141
TAFHON
TAF
KHON 191141Z 1912/2012 15013KT 6SM BR OVC007
     FM191500 15016G24KT P6SM OVC011
     FM191700 15018G25KT P6SM BKN020
     FM191800 15018G26KT P6SM SCT150
     FM200100 16015G23KT P6SM VCTS BKN035CB
     FM200300 28016G24KT P6SM SHRA VCTS BKN025CB
     FM200500 34007KT P6SM BKN080
     FM200700 31007KT P6SM BKN110=

USA.gov is the U.S. government's official web portal to all federal, state and local government web resources and services.